Aquadale, North Carolina
Current Conditions -  °F | °C
As of 9:55 PM on Friday 19 Dec 2014 (Local Time) from KVUJ Reporting Station
Clear Clear  
Wind Chill: 38°   Ceiling: Unl
Heat Index: 38°   Visibility: 10mi
Dew Point: 33°   Wind: 0mph
Humidity: 83%   Direction: NA
Pressure: 30.22"   Gusts: NA
Location:  35.2152°N, 80.1663°W
Report Text: KVUJ 200255Z AUTO 00000KT 10SM CLR 03/01 A3022 RMK AO2 T00320006
Loading
Personal Weather Stations






























Interactive Weather Map New forecast layout! Learn more

10-Day Weather Forecast

Advertisements
Track Severe Weather on mobile